createdAt,value
2016-12-09T00:01:26.994Z,89.31
2016-12-09T00:02:39.704Z,89.69
2016-12-09T00:04:11.545Z,89.69
2016-12-09T00:05:42.697Z,89.97
2016-12-09T00:07:14.967Z,90.25
2016-12-09T00:08:47.205Z,90.16
2016-12-09T00:10:19.674Z,90.53
2016-12-09T00:11:50.954Z,90.72
2016-12-09T00:13:22.608Z,90.63
2016-12-09T00:14:53.474Z,90.91
2016-12-09T00:16:04.929Z,90.91
2016-12-09T00:17:37.392Z,91.01
2016-12-09T00:19:31.199Z,90.53
2016-12-09T00:20:43.160Z,90.91
2016-12-09T00:22:14.226Z,90.82
2016-12-09T00:23:45.698Z,91.48
2016-12-09T00:25:17.129Z,90.91
2016-12-09T00:26:49.029Z,90.91
2016-12-09T00:28:20.665Z,91.01
2016-12-09T00:29:32.311Z,91.2
2016-12-09T00:30:59.030Z,91.29
2016-12-09T00:32:31.115Z,91.1
2016-12-09T00:34:03.457Z,91.1
2016-12-09T00:35:35.399Z,90.91
2016-12-09T00:36:47.483Z,90.91
2016-12-09T00:38:19.131Z,91.01
2016-12-09T00:39:50.549Z,91.2
2016-12-09T00:41:22.191Z,90.91
2016-12-09T00:42:54.612Z,90.63
2016-12-09T00:44:26.042Z,90.82
2016-12-09T00:45:56.990Z,91.34
2016-12-09T00:47:28.703Z,91.43
2016-12-09T00:48:41.145Z,91.2
2016-12-09T00:50:13.833Z,91.72
2016-12-09T00:51:45.983Z,91.2
2016-12-09T00:53:19.304Z,91.2
2016-12-09T00:54:51.541Z,90.91
2016-12-09T00:56:23.357Z,91.39
2016-12-09T00:57:55.169Z,90.82
2016-12-09T00:59:27.136Z,91.2
2016-12-09T01:00:59.017Z,91.39
2016-12-09T01:02:29.377Z,92
2016-12-09T01:04:07.157Z,92.47
2016-12-09T01:06:04.471Z,92
2016-12-09T01:07:41.575Z,92
2016-12-09T01:09:11.250Z,92.29
2016-12-09T01:10:23.224Z,91.81
2016-12-09T01:11:54.383Z,91.48
2016-12-09T01:13:26.016Z,91.72
2016-12-09T01:14:57.178Z,92.29
2016-12-09T01:16:23.704Z,91.81
2016-12-09T01:18:07.290Z,91.91
2016-12-09T01:19:39.207Z,91.72
2016-12-09T01:21:10.227Z,91.91
2016-12-09T01:22:41.961Z,91.48
2016-12-09T01:24:13.199Z,91.48
2016-12-09T01:25:44.642Z,91.2
2016-12-09T01:27:15.520Z,91.48
2016-12-09T01:28:27.083Z,91.24
2016-12-09T01:29:58.126Z,91.72
2016-12-09T01:31:29.700Z,91.24
2016-12-09T01:33:01.050Z,91.2
2016-12-09T01:34:32.384Z,90.91
2016-12-09T01:36:03.322Z,91.1
2016-12-09T01:37:15.498Z,91.01
2016-12-09T01:38:46.834Z,91.1
2016-12-09T01:40:17.814Z,91.01
2016-12-09T01:41:48.768Z,90.91
2016-12-09T01:43:20.229Z,90.63
2016-12-09T01:44:51.585Z,90.72
2016-12-09T01:46:22.523Z,90.91
2016-12-09T01:47:34.036Z,91.39
2016-12-09T01:49:05.436Z,91.39
2016-12-09T01:50:36.348Z,91.48
2016-12-09T01:52:07.314Z,91.01
2016-12-09T01:53:38.603Z,91.1
2016-12-09T01:55:10.030Z,91.2
2016-12-09T01:56:21.518Z,91.01
2016-12-09T01:57:52.396Z,91.2
2016-12-09T01:59:23.336Z,91.1
2016-12-09T02:00:54.720Z,90.82
2016-12-09T02:02:26.005Z,91.1
2016-12-09T02:03:56.848Z,90.82
2016-12-09T02:05:08.303Z,90.72
2016-12-09T02:06:39.797Z,90.44
2016-12-09T02:08:10.732Z,90.63
2016-12-09T02:09:41.823Z,90.53
2016-12-09T02:11:12.699Z,90.82
2016-12-09T02:12:43.910Z,90.82
2016-12-09T02:13:55.692Z,90.16
2016-12-09T02:15:26.841Z,90.25
2016-12-09T02:16:52.605Z,90.16
2016-12-09T02:18:25.131Z,90.63
2016-12-09T02:19:37.038Z,90.25
2016-12-09T02:21:08.506Z,90.34
2016-12-09T02:22:40.203Z,89.59
2016-12-09T02:24:11.301Z,90.34
2016-12-09T02:25:42.481Z,90.06
2016-12-09T02:27:14.164Z,89.97
2016-12-09T02:28:45.197Z,90.34
2016-12-09T02:29:57.277Z,90.16
2016-12-09T02:31:28.655Z,90.06
2016-12-09T02:33:00.338Z,89.97
2016-12-09T02:34:31.224Z,89.78
2016-12-09T02:36:02.851Z,89.78
2016-12-09T02:37:34.094Z,89.78
2016-12-09T02:39:04.989Z,90.16
2016-12-09T02:40:16.526Z,90.16
2016-12-09T02:41:48.204Z,89.69
2016-12-09T02:43:19.772Z,90.34
2016-12-09T02:44:50.669Z,89.97
2016-12-09T02:46:21.592Z,89.78
2016-12-09T02:47:53.174Z,89.69
2016-12-09T02:49:26.936Z,89.31
2016-12-09T02:50:58.576Z,89.69
2016-12-09T02:52:10.297Z,89.87
2016-12-09T02:53:36.242Z,89.59
2016-12-09T02:55:02.120Z,89.78
2016-12-09T02:56:13.819Z,89.97
2016-12-09T02:57:45.080Z,89.4
2016-12-09T02:59:16.417Z,88.93
2016-12-09T03:00:47.377Z,88.87
2016-12-09T03:01:59.391Z,88.31
2016-12-09T03:03:30.303Z,89.06
2016-12-09T03:05:01.471Z,88.97
2016-12-09T03:06:32.675Z,88.87
2016-12-09T03:08:03.659Z,88.31
2016-12-09T03:09:15.401Z,88.49
2016-12-09T03:10:46.544Z,88.68
2016-12-09T03:12:18.317Z,88.97
2016-12-09T03:13:44.830Z,88.59
2016-12-09T03:14:56.312Z,88.59
2016-12-09T03:16:28.132Z,88.21
2016-12-09T03:17:59.077Z,88.4
2016-12-09T03:19:29.977Z,87.74
2016-12-09T03:21:01.251Z,87.84
2016-12-09T03:22:32.911Z,87.93
2016-12-09T03:23:44.807Z,87.74
2016-12-09T03:25:15.720Z,87.93
2016-12-09T03:26:41.670Z,87.65
2016-12-09T03:27:53.372Z,87.93
2016-12-09T03:29:24.527Z,87.84
2016-12-09T03:30:55.926Z,88.31
2016-12-09T03:32:26.872Z,88.59
2016-12-09T03:33:58.008Z,88.4
2016-12-09T03:35:29.117Z,87.84
2016-12-09T03:37:01.105Z,87.46
2016-12-09T03:38:12.769Z,87.46
2016-12-09T03:39:44.195Z,87.36
2016-12-09T03:41:15.653Z,87.27
2016-12-09T03:42:46.912Z,87.17
2016-12-09T03:44:17.798Z,87.08
2016-12-09T03:45:48.918Z,87.65
2016-12-09T03:47:20.747Z,87.46
2016-12-09T03:48:32.490Z,86.79
2016-12-09T03:50:03.726Z,86.89
2016-12-09T03:51:29.746Z,87.27
2016-12-09T03:53:00.851Z,87.17
2016-12-09T03:54:12.558Z,87.27
2016-12-09T03:55:44.287Z,87.5
2016-12-09T03:57:15.494Z,86.46
2016-12-09T03:58:46.535Z,85.8
2016-12-09T04:00:17.989Z,85.89
2016-12-09T04:01:49.535Z,85.99
2016-12-09T04:03:20.766Z,85.51
2016-12-09T04:04:32.523Z,85.8
2016-12-09T04:06:03.449Z,85.89
2016-12-09T04:07:38.716Z,85.7
2016-12-09T04:09:09.938Z,85.99
2016-12-09T04:10:41.473Z,86.08
2016-12-09T04:12:13.843Z,85.61
2016-12-09T04:13:45.320Z,85.23
2016-12-09T04:15:17.347Z,85.51
2016-12-09T04:16:50.054Z,85.61
2016-12-09T04:18:01.944Z,85.8
2016-12-09T04:19:56.787Z,85.32
2016-12-09T04:21:38.812Z,84.19
2016-12-09T04:23:05.495Z,85.13
2016-12-09T04:24:37.872Z,84.38
2016-12-09T04:26:05.549Z,84.66
2016-12-09T04:27:17.884Z,84.75
2016-12-09T04:28:49.336Z,85.04
2016-12-09T04:30:20.284Z,85.23
2016-12-09T04:31:51.193Z,85.61
2016-12-09T04:33:03.025Z,84.94
2016-12-09T04:34:34.690Z,85.23
2016-12-09T04:36:05.742Z,85.23
2016-12-09T04:38:07.974Z,84.75
2016-12-09T04:39:44.479Z,85.13
2016-12-09T04:41:18.710Z,85.32
2016-12-09T04:43:23.062Z,84.38
2016-12-09T04:44:50.752Z,84.56
2016-12-09T04:46:48.843Z,84.23
2016-12-09T04:48:28.948Z,83.81
2016-12-09T04:50:25.281Z,83.24
2016-12-09T04:52:00.951Z,83.9
2016-12-09T04:53:34.825Z,83.94
2016-12-09T04:55:06.658Z,83.24
2016-12-09T04:56:38.932Z,83.18
2016-12-09T04:58:10.887Z,83
2016-12-09T04:59:23.752Z,82.9
2016-12-09T05:01:18.034Z,82.9
2016-12-09T05:02:30.185Z,83
2016-12-09T05:04:01.911Z,83.43
2016-12-09T05:05:33.742Z,83.71
2016-12-09T05:07:04.964Z,83.62
2016-12-09T05:08:35.967Z,83.71
2016-12-09T05:10:06.866Z,83.62
2016-12-09T05:11:38.193Z,84.09
2016-12-09T05:13:10.684Z,83.9
2016-12-09T05:14:43.782Z,84.19
2016-12-09T05:15:55.538Z,84.47
2016-12-09T05:17:27.217Z,84.19
2016-12-09T05:18:58.197Z,84.28
2016-12-09T05:20:29.373Z,83.81
2016-12-09T05:22:00.681Z,84.38
2016-12-09T05:23:31.970Z,84
2016-12-09T05:25:02.698Z,83.75
2016-12-09T05:26:15.013Z,84.09
2016-12-09T05:27:46.041Z,84.66
2016-12-09T05:29:17.720Z,83.75
2016-12-09T05:30:49.202Z,83.47
2016-12-09T05:32:20.315Z,83.47
2016-12-09T05:33:51.578Z,83.47
2016-12-09T05:35:23.800Z,83.28
2016-12-09T05:36:35.798Z,83.09
2016-12-09T05:38:07.196Z,82.9
2016-12-09T05:39:39.456Z,83.09
2016-12-09T05:41:10.857Z,83.09
2016-12-09T05:42:42.362Z,83.09
2016-12-09T05:44:14.065Z,83.28
2016-12-09T05:45:45.942Z,83.09
2016-12-09T05:47:17.416Z,83
2016-12-09T05:48:49.742Z,83.18
2016-12-09T05:50:23.099Z,83.28
2016-12-09T05:51:54.884Z,83.18
2016-12-09T05:53:06.774Z,83.66
2016-12-09T05:54:41.179Z,83.85
2016-12-09T05:56:14.025Z,83.56
2016-12-09T05:58:06.672Z,83.85
2016-12-09T05:59:39.707Z,83.85
2016-12-09T06:00:51.439Z,83.18
2016-12-09T06:02:22.476Z,83.18
2016-12-09T06:03:53.385Z,83.81
2016-12-09T06:05:24.847Z,83.62
2016-12-09T06:06:55.762Z,83.66
2016-12-09T06:08:26.456Z,83.62
2016-12-09T06:09:38.554Z,83.18
2016-12-09T06:11:10.010Z,83.56
2016-12-09T06:12:41.024Z,83.66
2016-12-09T06:14:11.915Z,83.9
2016-12-09T06:15:42.771Z,84.38
2016-12-09T06:17:14.680Z,84.28
2016-12-09T06:18:26.495Z,84.38
2016-12-09T06:19:57.433Z,84.38
2016-12-09T06:21:28.472Z,84.28
2016-12-09T06:22:59.942Z,84.28
2016-12-09T06:24:30.849Z,83.9
2016-12-09T06:26:02.102Z,84.28
2016-12-09T06:27:13.989Z,83.94
2016-12-09T06:28:45.154Z,83.75
2016-12-09T06:30:16.366Z,83.66
2016-12-09T06:31:47.287Z,83.75
2016-12-09T06:33:18.179Z,83.66
2016-12-09T06:34:49.512Z,83.28
2016-12-09T06:36:20.513Z,83.66
2016-12-09T06:37:32.284Z,83.85
2016-12-09T06:39:03.745Z,83.94
2016-12-09T06:40:34.911Z,83.75
2016-12-09T06:42:05.916Z,83.85
2016-12-09T06:43:37.736Z,83.66
2016-12-09T06:45:08.990Z,83.66
2016-12-09T06:46:21.021Z,83.85
2016-12-09T06:47:46.820Z,84.28
2016-12-09T06:49:17.760Z,84.13
2016-12-09T06:50:48.967Z,84.32
2016-12-09T06:52:00.675Z,84.32
2016-12-09T06:53:31.565Z,83.66
2016-12-09T06:55:02.550Z,83.75
2016-12-09T06:56:33.788Z,83.66
2016-12-09T06:58:05.271Z,83.94
2016-12-09T06:59:36.136Z,83.66
2016-12-09T07:00:47.688Z,83.56
2016-12-09T07:02:18.684Z,83.18
2016-12-09T07:03:50.161Z,83.28
2016-12-09T07:05:21.440Z,83.37
2016-12-09T07:06:53.117Z,83.66
2016-12-09T07:08:24.197Z,83.66
2016-12-09T07:09:55.734Z,83.37
2016-12-09T07:11:07.407Z,83.18
2016-12-09T07:12:38.756Z,82.9
2016-12-09T07:14:10.045Z,83
2016-12-09T07:15:41.287Z,82.71
2016-12-09T07:17:12.534Z,83.18
2016-12-09T07:18:43.595Z,83.47
2016-12-09T07:19:55.597Z,84.61
2016-12-09T07:21:27.226Z,83.66
2016-12-09T07:22:58.180Z,83.85
2016-12-09T07:24:29.293Z,83.66
2016-12-09T07:26:02.686Z,83.09
2016-12-09T07:27:33.858Z,83.18
2016-12-09T07:29:00.100Z,83
2016-12-09T07:30:11.683Z,83.85
2016-12-09T07:31:43.012Z,83.75
2016-12-09T07:33:14.193Z,83.37
2016-12-09T07:34:45.434Z,83.66
2016-12-09T07:35:56.905Z,83.66
2016-12-09T07:37:28.416Z,83.56
2016-12-09T07:38:59.545Z,83.66
2016-12-09T07:40:30.947Z,83.94
2016-12-09T07:41:57.538Z,83.09
2016-12-09T07:43:09.228Z,83.28
2016-12-09T07:44:40.201Z,83.85
2016-12-09T07:46:11.384Z,84.04
2016-12-09T07:47:42.501Z,83.56
2016-12-09T07:49:13.798Z,83.47
2016-12-09T07:50:45.046Z,83.37
2016-12-09T07:51:57.203Z,83.94
2016-12-09T07:53:28.447Z,83.66
2016-12-09T07:54:59.457Z,83.28
2016-12-09T07:56:30.320Z,83.47
2016-12-09T07:58:01.868Z,83.66
2016-12-09T07:59:32.870Z,83.66
2016-12-09T08:00:44.610Z,83.47
2016-12-09T08:02:15.820Z,83.37
2016-12-09T08:03:47.163Z,83.75
2016-12-09T08:05:18.421Z,83.47
2016-12-09T08:06:49.491Z,83.37
2016-12-09T08:08:20.729Z,83.04
2016-12-09T08:09:52.272Z,83.37
2016-12-09T08:11:04.029Z,83.09
2016-12-09T08:12:34.899Z,83.04
2016-12-09T08:14:06.095Z,83.42
2016-12-09T08:15:37.793Z,82.75
2016-12-09T08:17:08.811Z,83.13
2016-12-09T08:18:39.943Z,82.56
2016-12-09T08:19:51.738Z,82.37
2016-12-09T08:21:17.712Z,82.09
2016-12-09T08:22:49.024Z,82.47
2016-12-09T08:24:20.541Z,82.28
2016-12-09T08:25:32.262Z,82.09
2016-12-09T08:27:03.814Z,82.09
2016-12-09T08:28:35.063Z,81.52
2016-12-09T08:30:06.226Z,81.52
2016-12-09T08:31:37.421Z,81.52
2016-12-09T08:33:08.296Z,80.76
2016-12-09T08:34:39.275Z,81.24
2016-12-09T08:35:52.022Z,81.99
2016-12-09T08:37:23.151Z,81.71
2016-12-09T08:38:54.154Z,81.05
2016-12-09T08:40:20.285Z,80.29
2016-12-09T08:41:33.504Z,79.72
2016-12-09T08:43:04.737Z,79.82
2016-12-09T08:44:36.370Z,79.82
2016-12-09T08:46:07.614Z,79.63
2016-12-09T08:47:39.715Z,79.57
2016-12-09T08:49:11.114Z,78.81
2016-12-09T08:50:42.150Z,79.28
2016-12-09T08:51:53.937Z,79.19
2016-12-09T08:53:25.110Z,79.28
2016-12-09T08:54:56.600Z,79.76
2016-12-09T08:56:29.926Z,79.63
2016-12-09T08:58:01.001Z,79.57
2016-12-09T08:59:32.351Z,79.57
2016-12-09T09:01:04.912Z,79.38
2016-12-09T09:02:36.026Z,79.38
2016-12-09T09:04:07.144Z,79.66
2016-12-09T09:05:18.931Z,79.47
2016-12-09T09:06:50.116Z,79.38
2016-12-09T09:08:21.336Z,79.19
2016-12-09T09:09:52.269Z,79.1
2016-12-09T09:11:23.282Z,79
2016-12-09T09:12:54.673Z,79
2016-12-09T09:14:06.195Z,79.19
2016-12-09T09:15:37.149Z,79.19
2016-12-09T09:17:08.552Z,79
2016-12-09T09:18:39.916Z,78.72
2016-12-09T09:19:51.883Z,79
2016-12-09T09:21:22.920Z,79.19
2016-12-09T09:22:53.901Z,79
2016-12-09T09:24:26.295Z,78.91
2016-12-09T09:25:57.452Z,78.72
2016-12-09T09:27:28.784Z,78.91
2016-12-09T09:28:59.703Z,78.72
2016-12-09T09:30:32.572Z,78.81
2016-12-09T09:31:44.391Z,78.34
2016-12-09T09:33:15.738Z,78.34
2016-12-09T09:35:06.776Z,77.71
2016-12-09T09:36:18.798Z,78.05
2016-12-09T09:37:49.788Z,77.58
2016-12-09T09:39:20.875Z,78.53
2016-12-09T09:40:51.744Z,77.96
2016-12-09T09:42:03.792Z,77.96
2016-12-09T09:43:34.754Z,78.24
2016-12-09T09:45:06.107Z,77.86
2016-12-09T09:46:37.199Z,78.15
2016-12-09T09:48:08.866Z,78.05
2016-12-09T09:49:40.161Z,78.15
2016-12-09T09:51:11.324Z,77.62
2016-12-09T09:52:23.129Z,78.34
2016-12-09T09:53:54.676Z,79
2016-12-09T09:55:25.840Z,79.1
2016-12-09T09:56:56.722Z,78.91
2016-12-09T09:58:27.664Z,79
2016-12-09T09:59:59.137Z,79.1
2016-12-09T10:01:11.094Z,78.81
2016-12-09T10:02:42.141Z,78.62
2016-12-09T10:04:13.153Z,78.15
2016-12-09T10:05:44.734Z,78.81
2016-12-09T10:07:15.905Z,78.05
2016-12-09T10:08:46.901Z,78.43
2016-12-09T10:10:18.631Z,78.43
2016-12-09T10:11:30.897Z,78.43
2016-12-09T10:13:01.932Z,78.34
2016-12-09T10:14:33.223Z,78.81
2016-12-09T10:16:04.284Z,79.14
2016-12-09T10:17:35.504Z,79
2016-12-09T10:19:06.449Z,78.09
2016-12-09T10:20:18.156Z,77.81
2016-12-09T10:21:49.139Z,78
2016-12-09T10:23:20.455Z,78.15
2016-12-09T10:24:51.755Z,78.91
2016-12-09T10:26:22.765Z,78.38
2016-12-09T10:27:55.927Z,78.19
2016-12-09T10:29:27.181Z,78.15
2016-12-09T10:30:58.271Z,78.38
2016-12-09T10:32:10.188Z,77.52
2016-12-09T10:33:41.121Z,77.71
2016-12-09T10:35:12.765Z,78.09
2016-12-09T10:37:11.119Z,78.28
2016-12-09T10:38:22.642Z,77.43
2016-12-09T10:39:53.603Z,77.71
2016-12-09T10:41:24.848Z,77.81
2016-12-09T10:42:55.785Z,78.19
2016-12-09T10:44:26.834Z,78.66
2016-12-09T10:45:58.088Z,78.09
2016-12-09T10:47:10.118Z,78.38
2016-12-09T10:48:41.126Z,78.75
2016-12-09T10:50:12.164Z,78.34
2016-12-09T10:51:43.072Z,78.19
2016-12-09T10:53:14.588Z,78.28
2016-12-09T10:54:45.506Z,78.56
2016-12-09T10:55:57.005Z,78.19
2016-12-09T10:57:27.927Z,77.33
2016-12-09T10:58:58.840Z,77.62
2016-12-09T11:00:29.968Z,77.05
2016-12-09T11:01:55.828Z,77.62
2016-12-09T11:03:07.646Z,77.14
2016-12-09T11:04:39.459Z,77.71
2016-12-09T11:06:10.591Z,77.81
2016-12-09T11:07:36.727Z,77.52
2016-12-09T11:08:48.716Z,77.52
2016-12-09T11:10:20.027Z,77.24
2016-12-09T11:11:51.601Z,77.24
2016-12-09T11:13:23.157Z,77.71
2016-12-09T11:14:55.166Z,77.33
2016-12-09T11:16:26.940Z,77.62
2016-12-09T11:17:39.105Z,77.52
2016-12-09T11:19:11.123Z,77.43
2016-12-09T11:21:08.846Z,77.33
2016-12-09T11:22:39.954Z,77.14
2016-12-09T11:23:51.982Z,77.62
2016-12-09T11:25:23.668Z,77.43
2016-12-09T11:26:54.662Z,77.28
2016-12-09T11:28:26.389Z,76.61
2016-12-09T11:29:57.969Z,76.61
2016-12-09T11:31:09.559Z,76.23
2016-12-09T11:32:40.670Z,76.14
2016-12-09T11:34:11.701Z,76.52
2016-12-09T11:35:42.634Z,76.8
2016-12-09T11:37:13.580Z,76.52
2016-12-09T11:38:44.966Z,76.8
2016-12-09T11:39:56.597Z,76.71
2016-12-09T11:41:27.485Z,76.52
2016-12-09T11:42:58.396Z,76.8
2016-12-09T11:44:29.720Z,76.61
2016-12-09T11:46:00.960Z,76.99
2016-12-09T11:47:32.508Z,76.8
2016-12-09T11:48:44.012Z,76.71
2016-12-09T11:50:15.009Z,77.09
2016-12-09T11:51:47.753Z,76.61
2016-12-09T11:53:18.702Z,77.18
2016-12-09T11:54:50.192Z,77.37
2016-12-09T11:56:21.491Z,76.9
2016-12-09T11:57:52.723Z,76.61
2016-12-09T11:59:25.968Z,76.99
2016-12-09T12:00:58.283Z,76.61
2016-12-09T12:02:30.021Z,76.8
2016-12-09T12:03:42.171Z,76.52
2016-12-09T12:05:13.944Z,76.32
2016-12-09T12:06:45.168Z,76.42
2016-12-09T12:08:16.097Z,76.71
2016-12-09T12:09:47.450Z,76.9
2016-12-09T12:11:19.233Z,76.71
2016-12-09T12:12:31.218Z,76.42
2016-12-09T12:14:03.200Z,77.28
2016-12-09T12:15:30.101Z,77.37
2016-12-09T12:16:42.631Z,77.18
2016-12-09T12:18:13.897Z,76.99
2016-12-09T12:19:46.020Z,77.18
2016-12-09T12:21:17.463Z,77.56
2016-12-09T12:22:48.504Z,77.84
2016-12-09T12:24:14.545Z,78.13
2016-12-09T12:25:26.009Z,78.23
2016-12-09T12:26:56.996Z,77.94
2016-12-09T12:28:28.236Z,78.23
2016-12-09T12:29:59.209Z,78.51
2016-12-09T12:31:11.210Z,78.51
2016-12-09T12:32:42.484Z,79.17
2016-12-09T12:34:13.889Z,79.55
2016-12-09T12:35:45.242Z,79.36
2016-12-09T12:37:16.378Z,79.55
2016-12-09T12:38:47.500Z,79.65
2016-12-09T12:40:18.865Z,79.46
2016-12-09T12:41:30.455Z,79.55
2016-12-09T12:43:01.469Z,79.94
2016-12-09T12:44:32.566Z,80.41
2016-12-09T12:46:04.123Z,82.4
2016-12-09T12:47:35.093Z,81.26
2016-12-09T12:49:06.169Z,80.79
2016-12-09T12:50:18.108Z,81.36
2016-12-09T12:51:49.363Z,81.45
2016-12-09T12:53:15.203Z,81.65
2016-12-09T12:54:47.524Z,82.17
2016-12-09T12:56:19.008Z,82.03
2016-12-09T12:57:31.133Z,81.79
2016-12-09T12:59:02.851Z,81.7
2016-12-09T13:00:33.933Z,82.46
2016-12-09T13:02:05.547Z,82.31
2016-12-09T13:03:36.544Z,82.65
2016-12-09T13:05:08.082Z,82.5
2016-12-09T13:06:40.320Z,83.03
2016-12-09T13:07:52.512Z,82.46
2016-12-09T13:09:23.510Z,82.84
2016-12-09T13:10:54.485Z,83.31
2016-12-09T13:12:25.682Z,83.69
2016-12-09T13:13:57.089Z,84.17
2016-12-09T13:15:28.058Z,83.97
2016-12-09T13:16:59.507Z,83.78
2016-12-09T13:18:11.357Z,83.59
2016-12-09T13:19:42.617Z,83.78
2016-12-09T13:22:08.659Z,84.07
2016-12-09T13:23:20.301Z,84.07
2016-12-09T13:24:51.307Z,83.88
2016-12-09T13:26:22.210Z,83.4
2016-12-09T13:27:53.092Z,83.88
2016-12-09T13:29:24.573Z,83.88
2016-12-09T13:30:57.970Z,84.07
2016-12-09T13:32:09.521Z,83.54
2016-12-09T13:33:35.633Z,83.45
2016-12-09T13:35:01.839Z,83.36
2016-12-09T13:36:14.312Z,83.16
2016-12-09T13:37:46.977Z,83.45
2016-12-09T13:39:00.698Z,83.64
2016-12-09T13:40:33.305Z,83.83
2016-12-09T13:42:04.497Z,84.21
2016-12-09T13:43:36.291Z,83.92
2016-12-09T13:45:07.907Z,83.83
2016-12-09T13:46:39.415Z,83.73
2016-12-09T13:48:10.802Z,83.73
2016-12-09T13:49:22.555Z,83.83
2016-12-09T13:50:54.258Z,83.92
2016-12-09T13:52:26.275Z,84.59
2016-12-09T13:53:58.043Z,83.97
2016-12-09T13:55:29.153Z,83.64
2016-12-09T13:57:00.304Z,84.01
2016-12-09T13:58:31.678Z,83.64
2016-12-09T14:00:04.243Z,83.64
2016-12-09T14:01:36.404Z,83.92
2016-12-09T14:02:48.629Z,85.06
2016-12-09T14:04:20.490Z,85.35
2016-12-09T14:05:52.038Z,85.02
2016-12-09T14:07:23.444Z,84.97
2016-12-09T14:08:55.116Z,84.59
2016-12-09T14:10:26.333Z,84.49
2016-12-09T14:11:57.426Z,84.68
2016-12-09T14:13:09.253Z,84.49
2016-12-09T14:14:41.347Z,83.64
2016-12-09T14:16:13.001Z,83.83
2016-12-09T14:17:44.139Z,83.54
2016-12-09T14:19:15.439Z,83.73
2016-12-09T14:20:46.563Z,83.83
2016-12-09T14:22:17.810Z,84.21
2016-12-09T14:23:48.992Z,84.68
2016-12-09T14:25:00.887Z,84.01
2016-12-09T14:26:52.794Z,84.3
2016-12-09T14:28:04.841Z,84.49
2016-12-09T14:29:36.588Z,84.4
2016-12-09T14:31:08.074Z,84.01
2016-12-09T14:32:39.059Z,84.21
2016-12-09T14:34:10.173Z,84.21
2016-12-09T14:35:21.770Z,84.11
2016-12-09T14:37:12.476Z,83.64
2016-12-09T14:38:24.206Z,83.83
2016-12-09T14:39:55.063Z,83.83
2016-12-09T14:41:27.134Z,84.3
2016-12-09T14:42:58.465Z,84.01
2016-12-09T14:44:29.626Z,84.21
2016-12-09T14:45:41.231Z,84.01
2016-12-09T14:47:12.414Z,84.4
2016-12-09T14:48:43.241Z,84.01
2016-12-09T14:50:14.311Z,83.73
2016-12-09T14:51:40.339Z,84.11
2016-12-09T14:52:51.907Z,84.01
2016-12-09T14:54:24.160Z,84.21
2016-12-09T14:55:56.136Z,84.49
2016-12-09T14:57:27.637Z,84.3
2016-12-09T14:58:58.869Z,84.4
2016-12-09T15:00:10.455Z,84.21
2016-12-09T15:02:03.124Z,84.21
2016-12-09T15:03:14.948Z,84.01
2016-12-09T15:05:13.826Z,84.11
2016-12-09T15:06:41.805Z,84.3
2016-12-09T15:07:53.614Z,84.21
2016-12-09T15:09:24.607Z,83.92
2016-12-09T15:10:55.620Z,84.21
2016-12-09T15:12:26.576Z,84.01
2016-12-09T15:13:38.122Z,83.36
2016-12-09T15:15:09.331Z,83.26
2016-12-09T15:16:40.322Z,83.26
2016-12-09T15:18:12.873Z,83.26
2016-12-09T15:19:44.055Z,84.11
2016-12-09T15:21:40.471Z,86.72
2016-12-09T15:22:52.277Z,85.3
2016-12-09T15:24:23.426Z,82.26
2016-12-09T15:25:54.433Z,81.87
2016-12-09T15:27:25.360Z,82.16
2016-12-09T15:28:37.483Z,82.26
2016-12-09T15:30:08.533Z,83.01
2016-12-09T15:31:39.883Z,83.45
2016-12-09T15:33:05.590Z,83.54
2016-12-09T15:34:17.600Z,83.26
2016-12-09T15:35:48.712Z,84.01
2016-12-09T15:37:20.113Z,83.92
2016-12-09T15:38:51.065Z,83.54
2016-12-09T15:40:22.047Z,83.73
2016-12-09T15:41:54.100Z,84.01
2016-12-09T15:43:26.135Z,83.92
2016-12-09T15:44:37.950Z,83.83
2016-12-09T15:46:11.210Z,83.83
2016-12-09T15:47:42.201Z,83.64
2016-12-09T15:49:13.575Z,84.21
2016-12-09T15:50:39.482Z,84.01
2016-12-09T15:52:12.986Z,83.92
2016-12-09T15:53:26.467Z,83.83
2016-12-09T15:55:20.337Z,84.21
2016-12-09T15:56:32.056Z,83.73
2016-12-09T15:57:58.899Z,84.21
2016-12-09T15:59:10.464Z,83.54
2016-12-09T16:00:42.641Z,83.26
2016-12-09T16:02:13.652Z,83.26
2016-12-09T16:03:45.781Z,83.26
2016-12-09T16:05:16.842Z,82.59
2016-12-09T16:06:48.423Z,82.78
2016-12-09T16:08:19.437Z,82.78
2016-12-09T16:09:31.272Z,83.16
2016-12-09T16:11:03.888Z,82.88
2016-12-09T16:12:35.195Z,83.07
2016-12-09T16:14:06.267Z,82.88
2016-12-09T16:15:37.401Z,83.16
2016-12-09T16:17:08.921Z,82.88
2016-12-09T16:18:36.424Z,82.88
2016-12-09T16:19:48.318Z,82.59
2016-12-09T16:21:19.258Z,82.4
2016-12-09T16:22:50.355Z,82.4
2016-12-09T16:24:21.266Z,82.59
2016-12-09T16:25:32.874Z,82.78
2016-12-09T16:27:23.349Z,82.78
2016-12-09T16:28:35.535Z,82.21
2016-12-09T16:30:06.633Z,82.5
2016-12-09T16:31:38.184Z,82.21
2016-12-09T16:33:11.857Z,82.5
2016-12-09T16:34:43.861Z,82.5
2016-12-09T16:36:15.205Z,82.5
2016-12-09T16:37:46.493Z,82.21
2016-12-09T16:38:58.691Z,81.84
2016-12-09T16:40:26.576Z,81.65
2016-12-09T16:41:58.007Z,81.93
2016-12-09T16:43:29.424Z,82.12
2016-12-09T16:45:00.642Z,82.12
2016-12-09T16:46:12.501Z,81.93
2016-12-09T16:48:07.345Z,82.21
2016-12-09T16:49:38.694Z,81.93
2016-12-09T16:51:11.699Z,82.07
2016-12-09T16:52:24.352Z,81.59
2016-12-09T16:53:55.676Z,82.82
2016-12-09T16:55:27.701Z,83.01
2016-12-09T16:56:58.822Z,81.78
2016-12-09T16:58:30.478Z,81.12
2016-12-09T17:00:02.115Z,80.45
2016-12-09T17:01:33.211Z,80.55
2016-12-09T17:03:06.367Z,80.55
2016-12-09T17:04:38.895Z,80.74
2016-12-09T17:05:50.733Z,81.12
2016-12-09T17:07:21.872Z,80.83
2016-12-09T17:08:53.369Z,81.4
2016-12-09T17:10:25.341Z,81.21
2016-12-09T17:11:56.399Z,80.88
2016-12-09T17:13:54.374Z,81.17
2016-12-09T17:15:06.793Z,80.88
2016-12-09T17:16:32.523Z,80.98
2016-12-09T17:17:44.256Z,80.88
2016-12-09T17:19:15.204Z,80.98
2016-12-09T17:20:47.357Z,80.88
2016-12-09T17:22:18.950Z,80.79
2016-12-09T17:23:50.578Z,80.88
2016-12-09T17:25:21.532Z,81.26
2016-12-09T17:26:52.801Z,81.65
2016-12-09T17:28:25.120Z,81.74
2016-12-09T17:29:37.355Z,81.65
2016-12-09T17:31:08.661Z,81.65
2016-12-09T17:32:41.313Z,81.74
2016-12-09T17:34:12.517Z,82.21
2016-12-09T17:35:43.751Z,81.84
2016-12-09T17:37:14.684Z,81.74
2016-12-09T17:38:45.970Z,81.84
2016-12-09T17:40:16.676Z,81.36
2016-12-09T17:41:28.839Z,81.45
2016-12-09T17:43:00.760Z,81.36
2016-12-09T17:44:33.000Z,80.88
2016-12-09T17:46:04.728Z,80.98
2016-12-09T17:47:36.914Z,80.98
2016-12-09T17:49:09.656Z,81.36
2016-12-09T17:50:41.126Z,81.36
2016-12-09T17:52:12.988Z,81.74
2016-12-09T17:53:45.127Z,81.74
2016-12-09T17:55:16.582Z,81.74
2016-12-09T17:56:28.483Z,81.26
2016-12-09T17:58:00.212Z,81.17
2016-12-09T17:59:32.586Z,81.17
2016-12-09T18:00:58.621Z,81.36
2016-12-09T18:02:30.051Z,80.98
2016-12-09T18:03:43.202Z,80.6
2016-12-09T18:05:11.725Z,80.98
2016-12-09T18:06:43.534Z,80.79
2016-12-09T18:08:14.497Z,80.6
2016-12-09T18:09:45.768Z,80.69
2016-12-09T18:11:16.650Z,80.51
2016-12-09T18:12:28.929Z,80.32
2016-12-09T18:14:00.191Z,79.97
2016-12-09T18:15:31.132Z,79.97
2016-12-09T18:17:02.100Z,79.69
2016-12-09T18:18:33.109Z,79.97
2016-12-09T18:20:04.708Z,80.16
2016-12-09T18:21:16.524Z,80.07
2016-12-09T18:22:48.004Z,80.26
2016-12-09T18:24:19.256Z,80.13
2016-12-09T18:25:50.494Z,80.79
2016-12-09T18:27:21.507Z,80.88
2016-12-09T18:28:52.854Z,80.51
2016-12-09T18:30:23.797Z,81.07
2016-12-09T18:31:36.534Z,80.69
2016-12-09T18:33:07.637Z,80.6
2016-12-09T18:34:34.107Z,79.69
2016-12-09T18:36:06.113Z,80.51
2016-12-09T18:37:38.985Z,79.6
2016-12-09T18:39:21.356Z,79.6
2016-12-09T18:40:52.657Z,79.88
2016-12-09T18:42:18.565Z,79.41
2016-12-09T18:43:50.894Z,78.93
2016-12-09T18:45:02.598Z,79.03
2016-12-09T18:46:34.045Z,79.12
2016-12-09T18:48:05.588Z,79.03
2016-12-09T18:49:38.012Z,79.41
2016-12-09T18:51:09.733Z,79.5
2016-12-09T18:52:41.443Z,78.93
2016-12-09T18:54:12.969Z,79.22
2016-12-09T18:55:44.326Z,78.64
2016-12-09T18:56:55.969Z,78.93
2016-12-09T18:58:22.272Z,79.22
2016-12-09T18:59:53.682Z,79.22
2016-12-09T19:01:25.156Z,79.22
2016-12-09T19:02:36.615Z,79.22
2016-12-09T19:04:08.001Z,79.41
2016-12-09T19:05:39.731Z,79.79
2016-12-09T19:07:10.806Z,79.41
2016-12-09T19:08:41.755Z,79.12